Smyrna, South Carolina
Current Conditions -  °F | °C
As of 11:55 PM on Friday 19 Dec 2014 (Local Time) from KEHO Reporting Station
Scattered Clouds Scattered Clouds  
Wind Chill: 40°   Ceiling: Unl
Heat Index: 40°   Visibility: 10mi
Dew Point: 33°   Wind: 3mph
Humidity: 76%   Direction: 30°NNE
Pressure: 30.17"   Gusts: NA
Location:  35.04°N, 81.41°W
Report Text: KEHO 200455Z AUTO 03003KT 10SM SCT120 05/01 A3017 RMK AO2 T00450006
Loading
Personal Weather Stations






























Interactive Weather Map New forecast layout! Learn more

10-Day Weather Forecast

Advertisements
Track Severe Weather on mobile